Time;durP1;ratioP1;P1;durP2;ratioP2;P2;SDS_P1;SDS_P2;PMS_P1;PMS_P2;Temp;Humidity;BMP_temperature;BMP_pressure;BME280_temperature;BME280_humidity;BME280_pressure;Samples;Min_cycle;Max_cycle;Signal;HPM_P1;HPM_P2
2022/02/17 00:00:47;;;;;;;39.78;26.38;;;;;;;0.33;74.31;93168.81;5049668;28;20017;-41
2022/02/17 00:03:13;;;;;;;52.40;28.33;;;;;;;0.41;73.68;93163.66;5049871;28;20025;-40
2022/02/17 00:05:39;;;;;;;38.63;25.60;;;;;;;0.17;73.54;93166.06;5049494;28;20379;-40
2022/02/17 00:08:05;;;;;;;48.35;28.63;;;;;;;-0.36;75.99;93161.38;5049884;28;20104;-40
2022/02/17 00:10:31;;;;;;;47.70;26.88;;;;;;;-0.19;75.74;93171.09;5048125;28;20058;-40
2022/02/17 00:12:58;;;;;;;53.97;32.03;;;;;;;-0.23;75.70;93170.56;5049850;28;20462;-40
2022/02/17 00:15:28;;;;;;;60.42;34.00;;;;;;;-0.43;76.45;93173.44;5049483;28;20024;-41
2022/02/17 00:17:55;;;;;;;64.35;36.50;;;;;;;-0.24;77.22;93166.38;5049259;28;20104;-41
2022/02/17 00:20:20;;;;;;;62.25;33.33;;;;;;;-0.20;76.36;93164.19;5049609;28;20394;-41
2022/02/17 00:22:46;;;;;;;62.20;31.55;;;;;;;-0.31;75.95;93172.28;5049623;28;20032;-41
2022/02/17 00:25:11;;;;;;;52.97;30.02;;;;;;;-0.19;75.99;93167.63;5047742;28;20133;-41
2022/02/17 00:27:38;;;;;;;47.00;29.35;;;;;;;-0.13;75.50;93168.41;5049542;28;20036;-41
2022/02/17 00:30:05;;;;;;;53.42;29.50;;;;;;;-0.15;75.21;93158.03;5049190;28;20553;-41
2022/02/17 00:32:31;;;;;;;42.83;23.67;;;;;;;-0.11;75.20;93160.53;5049212;27;20470;-42
2022/02/17 00:34:56;;;;;;;46.10;25.45;;;;;;;-0.08;74.88;93165.72;5049438;28;20013;-42
2022/02/17 00:37:22;;;;;;;38.33;24.75;;;;;;;-0.13;75.02;93163.00;5048800;28;20420;-41
2022/02/17 00:39:47;;;;;;;46.28;25.52;;;;;;;-0.27;75.47;93163.91;5049107;28;20021;-40
2022/02/17 00:42:13;;;;;;;42.35;29.05;;;;;;;-0.22;75.82;93165.91;5049204;28;20021;-39
2022/02/17 00:44:38;;;;;;;53.47;31.92;;;;;;;-0.17;75.89;93160.50;5049226;28;20043;-36
2022/02/17 00:47:06;;;;;;;56.30;33.80;;;;;;;-0.12;74.99;93145.47;5049174;28;20025;-40
2022/02/17 00:49:31;;;;;;;69.50;37.05;;;;;;;-0.03;75.13;93148.72;5048406;28;20033;-39
2022/02/17 00:51:57;;;;;;;62.50;34.45;;;;;;;-0.08;75.25;93146.72;5048648;28;20056;-40
2022/02/17 00:54:23;;;;;;;51.13;29.02;;;;;;;-0.21;74.77;93145.66;5048717;28;20032;-40
2022/02/17 00:56:49;;;;;;;59.03;30.33;;;;;;;0.04;74.37;93146.75;5048593;28;20066;-40
2022/02/17 00:59:14;;;;;;;58.40;32.17;;;;;;;-0.07;74.17;93142.78;5048700;28;20055;-40
2022/02/17 01:01:43;;;;;;;75.82;40.70;;;;;;;-0.32;75.29;93140.19;5047386;28;20024;-40
2022/02/17 01:04:10;;;;;;;70.85;34.35;;;;;;;-0.57;75.77;93111.22;5048853;28;20024;-41
2022/02/17 01:06:39;;;;;;;59.90;33.08;;;;;;;-0.37;75.29;93132.78;5048890;28;20021;-40
2022/02/17 01:09:06;;;;;;;57.08;33.00;;;;;;;-0.47;75.57;93134.19;5048562;28;20036;-40
2022/02/17 01:11:31;;;;;;;49.33;29.60;;;;;;;-0.48;75.46;93140.88;5046085;28;20112;-40
2022/02/17 01:13:57;;;;;;;55.83;31.75;;;;;;;-0.38;74.48;93139.44;5046541;28;20124;-40
2022/02/17 01:16:22;;;;;;;39.90;22.92;;;;;;;-0.67;74.74;93139.78;5046438;28;20017;-41
2022/02/17 01:18:48;;;;;;;49.90;27.05;;;;;;;-0.72;76.21;93133.09;5046341;28;20025;-41
2022/02/17 01:21:14;;;;;;;63.63;33.25;;;;;;;-0.54;75.57;93123.81;5045926;28;20497;-40
2022/02/17 01:23:39;;;;;;;65.15;36.83;;;;;;;-0.48;76.07;93121.88;5046262;28;20028;-40
2022/02/17 01:26:05;;;;;;;71.53;38.38;;;;;;;-0.55;76.84;93116.91;5046466;28;20468;-40
2022/02/17 01:28:30;;;;;;;56.78;32.53;;;;;;;-0.48;75.60;93111.78;5045838;28;20025;-40
2022/02/17 01:30:55;;;;;;;60.60;35.33;;;;;;;-0.43;75.57;93108.34;5045629;28;20550;-41
2022/02/17 01:33:21;;;;;;;70.07;37.63;;;;;;;-0.58;75.91;93105.06;5045758;28;20062;-40
2022/02/17 01:35:46;;;;;;;53.63;32.35;;;;;;;-0.94;77.06;93081.47;5045627;28;20014;-40
2022/02/17 01:38:12;;;;;;;61.20;33.33;;;;;;;-0.57;76.17;93092.25;5044892;28;20031;-39
2022/02/17 01:40:39;;;;;;;58.13;34.78;;;;;;;-0.80;77.12;93096.81;5045899;28;20024;-41
2022/02/17 01:43:05;;;;;;;56.58;32.88;;;;;;;-0.95;77.80;93088.84;5045982;28;20033;-40
2022/02/17 01:45:30;;;;;;;60.55;31.98;;;;;;;-0.82;77.92;93085.69;5045760;28;20036;-40
2022/02/17 01:47:56;;;;;;;63.67;36.70;;;;;;;-0.72;77.63;93084.31;5046052;28;20056;-40
2022/02/17 01:50:22;;;;;;;64.65;40.65;;;;;;;-0.71;77.07;93088.47;5046129;28;20032;-40
2022/02/17 01:52:47;;;;;;;51.22;28.83;;;;;;;-0.62;76.77;93082.88;5046020;28;20493;-40
2022/02/17 01:55:13;;;;;;;42.65;22.48;;;;;;;-0.60;75.30;93064.13;5045066;28;20033;-40
2022/02/17 01:57:39;;;;;;;42.03;23.55;;;;;;;-0.73;74.67;93080.09;5045745;28;20057;-40
2022/02/17 02:00:06;;;;;;;38.80;21.13;;;;;;;-1.15;75.87;93067.28;5044392;28;20097;-38
2022/02/17 02:02:31;;;;;;;35.42;19.67;;;;;;;-1.19;76.06;93080.31;5045371;28;20544;-38
2022/02/17 02:04:57;;;;;;;29.85;16.95;;;;;;;-1.04;76.16;93083.59;5045640;28;20020;-39
2022/02/17 02:07:22;;;;;;;24.35;14.38;;;;;;;-0.99;75.86;93084.88;5045702;28;20040;-39
2022/02/17 02:09:48;;;;;;;25.50;14.13;;;;;;;-1.07;76.51;93087.28;5045697;28;20025;-38
2022/02/17 02:12:13;;;;;;;28.52;15.43;;;;;;;-1.11;75.86;93051.56;5045215;28;20021;-39
2022/02/17 02:14:55;;;;;;;21.60;13.70;;;;;;;-0.92;75.61;93079.00;5045479;28;20021;-37
2022/02/17 02:17:25;;;;;;;23.10;13.63;;;;;;;-1.02;76.09;93077.72;5045381;28;20043;-40
2022/02/17 02:19:56;;;;;;;27.08;15.38;;;;;;;-0.94;75.94;93076.03;5045726;28;20033;-38
2022/02/17 02:22:22;;;;;;;23.77;14.38;;;;;;;-0.93;75.73;93075.53;5045340;28;20021;-39
2022/02/17 02:24:47;;;;;;;34.00;17.95;;;;;;;-0.91;76.69;93075.81;5043758;28;20089;-40
2022/02/17 02:27:14;;;;;;;41.85;26.38;;;;;;;-0.81;76.35;93076.38;5043687;28;20064;-40
2022/02/17 02:29:40;;;;;;;40.70;22.15;;;;;;;-0.93;76.01;93066.66;5045347;28;20036;-37
2022/02/17 02:32:06;;;;;;;37.15;22.45;;;;;;;-0.89;75.93;93072.63;5045366;28;20033;-39
2022/02/17 02:34:32;;;;;;;51.45;28.67;;;;;;;-0.81;75.46;93073.66;5045289;28;20157;-38
2022/02/17 02:36:57;;;;;;;59.15;31.38;;;;;;;-0.76;75.22;93060.13;5045278;28;20028;-40
2022/02/17 02:39:22;;;;;;;42.47;25.42;;;;;;;-0.75;75.25;93069.00;5044337;28;20044;-40
2022/02/17 02:41:48;;;;;;;55.00;28.63;;;;;;;-0.68;75.84;93068.53;5045294;28;20029;-40
2022/02/17 02:44:13;;;;;;;49.55;27.25;;;;;;;-0.77;75.68;93071.44;5045375;28;20410;-39
2022/02/17 02:46:39;;;;;;;57.25;28.48;;;;;;;-0.82;75.48;93053.19;5044711;28;20486;-39
2022/02/17 02:49:05;;;;;;;57.30;29.83;;;;;;;-0.81;75.86;93060.84;5044658;28;20037;-40
2022/02/17 02:51:30;;;;;;;59.50;28.88;;;;;;;-0.85;77.21;93059.59;5044797;28;20025;-37
2022/02/17 02:53:56;;;;;;;57.53;28.10;;;;;;;-1.13;79.27;93059.44;5044574;27;20028;-38
2022/02/17 02:56:22;;;;;;;57.65;27.83;;;;;;;-0.97;78.33;93068.88;5044537;28;20045;-38
2022/02/17 02:58:48;;;;;;;71.20;30.13;;;;;;;-1.24;78.34;93062.06;5044652;28;20494;-38
2022/02/17 03:01:14;;;;;;;66.60;30.63;;;;;;;-1.61;79.97;93050.47;5045106;28;20073;-38
2022/02/17 03:03:39;;;;;;;54.05;26.70;;;;;;;-1.29;79.80;93065.47;5045288;28;20031;-38
2022/02/17 03:06:04;;;;;;;58.17;28.10;;;;;;;-1.19;79.73;93063.34;5044566;28;20509;-38
2022/02/17 03:08:30;;;;;;;54.08;27.27;;;;;;;-1.08;79.47;93058.72;5044846;28;20040;-40
2022/02/17 03:10:55;;;;;;;49.53;26.38;;;;;;;-1.05;79.30;93060.47;5044620;28;20017;-37
2022/02/17 03:13:21;;;;;;;57.28;25.38;;;;;;;-1.04;78.62;93058.50;5042741;28;20025;-37
2022/02/17 03:15:46;;;;;;;57.85;26.65;;;;;;;-1.09;78.78;93045.66;5047202;28;20021;-35
2022/02/17 03:18:12;;;;;;;57.22;27.75;;;;;;;-1.09;78.62;93048.38;5047004;28;20025;-37
2022/02/17 03:20:37;;;;;;;49.17;27.38;;;;;;;-1.16;77.91;93054.22;5047108;28;20017;-35
2022/02/17 03:23:02;;;;;;;45.38;24.05;;;;;;;-1.18;77.53;93056.69;5046970;28;20378;-38
2022/02/17 03:25:28;;;;;;;63.75;33.05;;;;;;;-1.32;77.52;93035.91;5046982;28;20009;-37
2022/02/17 03:27:53;;;;;;;69.70;33.45;;;;;;;-1.18;77.29;93053.97;5046917;28;20374;-37
2022/02/17 03:30:19;;;;;;;54.05;29.58;;;;;;;-1.12;77.35;93043.91;5046910;28;20029;-37
2022/02/17 03:32:44;;;;;;;50.78;28.23;;;;;;;-1.14;77.11;93049.06;5046664;28;20028;-35
2022/02/17 03:35:11;;;;;;;53.63;28.98;;;;;;;-0.99;76.77;93057.78;5046891;28;20018;-38
2022/02/17 03:37:37;;;;;;;61.50;28.55;;;;;;;-0.99;76.65;93052.34;5046868;28;20053;-37
2022/02/17 03:40:03;;;;;;;61.88;30.88;;;;;;;-0.95;76.12;93050.16;5046492;28;20036;-39
2022/02/17 03:42:29;;;;;;;65.28;30.38;;;;;;;-1.09;76.47;93051.06;5046767;28;20050;-37
2022/02/17 03:44:54;;;;;;;61.53;28.05;;;;;;;-1.54;78.37;93047.34;5046339;28;20474;-40
2022/02/17 03:47:20;;;;;;;66.50;31.80;;;;;;;-1.58;78.59;93055.66;5046472;28;20032;-40
2022/02/17 03:49:45;;;;;;;98.35;47.25;;;;;;;-1.78;79.68;93055.00;5046745;28;20021;-40
2022/02/17 03:52:10;;;;;;;65.18;32.65;;;;;;;-1.91;80.22;93052.69;5047027;28;20032;-38
2022/02/17 03:54:36;;;;;;;97.35;42.63;;;;;;;-1.74;79.90;93056.28;5045205;28;20041;-38
2022/02/17 03:57:01;;;;;;;65.43;31.60;;;;;;;-1.67;79.51;93055.09;5038922;28;20029;-38
2022/02/17 03:59:27;;;;;;;70.30;32.33;;;;;;;-1.52;79.21;93057.66;5035124;28;20029;-40
2022/02/17 04:01:52;;;;;;;58.72;28.00;;;;;;;-1.54;78.40;93050.03;5040117;28;20017;-41
2022/02/17 04:04:18;;;;;;;56.67;27.90;;;;;;;-1.47;79.00;93054.28;5038193;28;20025;-40
2022/02/17 04:06:43;;;;;;;52.22;25.98;;;;;;;-1.41;78.86;93050.38;5039498;28;20021;-41
2022/02/17 04:09:09;;;;;;;49.50;25.13;;;;;;;-1.25;78.05;93049.00;5041301;28;20021;-39
2022/02/17 04:11:34;;;;;;;59.63;24.63;;;;;;;-1.17;78.15;93047.34;5041211;28;20565;-39
2022/02/17 04:14:00;;;;;;;56.95;27.10;;;;;;;-1.14;78.56;93047.09;5049538;28;20021;-40
2022/02/17 04:16:26;;;;;;;97.18;30.25;;;;;;;-1.07;78.86;93054.78;5049791;28;20046;-40
2022/02/17 04:18:51;;;;;;;94.38;28.83;;;;;;;-1.23;79.25;93033.75;5049445;28;20104;-40
2022/02/17 04:21:19;;;;;;;167.90;41.28;;;;;;;-1.12;80.04;93060.16;5049799;28;20032;-40
2022/02/17 04:23:45;;;;;;;146.70;33.78;;;;;;;-1.22;79.80;93058.88;5049244;28;20100;-39
2022/02/17 04:26:12;;;;;;;111.88;32.10;;;;;;;-1.25;79.33;93035.44;5049554;28;20025;-39
2022/02/17 04:28:38;;;;;;;145.75;40.28;;;;;;;-1.21;79.29;93055.66;5049316;28;20064;-40
2022/02/17 04:31:03;;;;;;;69.97;34.42;;;;;;;-1.26;79.30;93055.66;5049428;28;20025;-40
2022/02/17 04:33:29;;;;;;;113.05;36.42;;;;;;;-1.26;79.61;93066.47;5049543;28;20025;-40
2022/02/17 04:35:54;;;;;;;75.43;37.63;;;;;;;-1.14;78.92;93055.22;5049425;28;20017;-40
2022/02/17 04:38:20;;;;;;;102.97;50.03;;;;;;;-1.26;78.70;93056.41;5049474;28;20387;-41
2022/02/17 04:43:29;;;;;;;89.15;33.35;;;;;;;-1.22;78.24;93046.06;5049446;28;20060;-40
2022/02/17 04:45:55;;;;;;;58.45;29.83;;;;;;;-1.24;77.92;93048.53;5048422;28;20045;-40
2022/02/17 04:48:20;;;;;;;68.55;30.75;;;;;;;-1.20;76.95;93032.03;5042452;28;20436;-40
2022/02/17 04:50:46;;;;;;;50.00;28.85;;;;;;;-1.67;77.49;93015.22;5035293;27;20029;-40
2022/02/17 04:53:11;;;;;;;54.92;32.00;;;;;;;-1.63;78.42;93031.25;5039582;28;20089;-39
2022/02/17 04:55:37;;;;;;;75.55;37.20;;;;;;;-1.49;78.88;93027.66;5048648;28;20025;-40
2022/02/17 04:58:03;;;;;;;74.03;38.17;;;;;;;-1.57;78.77;93021.22;5048699;28;20033;-35
2022/02/17 05:00:29;;;;;;;71.18;37.30;;;;;;;-1.60;78.22;93027.56;5049074;28;20405;-37
2022/02/17 05:02:54;;;;;;;90.07;41.97;;;;;;;-1.85;79.29;93039.19;5048700;28;20017;-38
2022/02/17 05:05:20;;;;;;;80.03;41.47;;;;;;;-2.02;79.76;93022.81;5048530;28;20056;-38
2022/02/17 05:07:45;;;;;;;91.80;40.85;;;;;;;-1.97;80.21;93022.13;5048931;28;20024;-39
2022/02/17 05:10:11;;;;;;;93.55;42.13;;;;;;;-2.20;80.43;93017.72;5048908;28;20032;-36
2022/02/17 05:12:37;;;;;;;95.28;50.25;;;;;;;-2.42;81.30;93017.50;5048558;28;20509;-37
2022/02/17 05:15:03;;;;;;;79.60;40.78;;;;;;;-2.11;81.00;93025.69;5048512;28;20025;-37
2022/02/17 05:17:28;;;;;;;79.47;28.20;;;;;;;-2.11;81.23;93011.41;5048578;28;20029;-39
2022/02/17 05:19:54;;;;;;;57.67;27.00;;;;;;;-2.07;81.69;93028.91;5048365;28;20032;-38
2022/02/17 05:22:19;;;;;;;55.90;25.23;;;;;;;-1.95;81.42;93032.47;5048437;28;20077;-39
2022/02/17 05:24:45;;;;;;;46.33;25.55;;;;;;;-1.84;81.54;93040.69;5048576;28;20032;-38
2022/02/17 05:27:10;;;;;;;62.65;26.98;;;;;;;-1.83;81.49;93032.09;5048624;28;20029;-36
2022/02/17 05:29:36;;;;;;;62.53;28.55;;;;;;;-1.63;80.60;93042.84;5048342;28;20494;-39
2022/02/17 05:32:01;;;;;;;78.90;27.33;;;;;;;-1.50;80.49;93042.44;5048526;28;20013;-40
2022/02/17 05:34:26;;;;;;;44.83;21.95;;;;;;;-1.81;81.65;93039.72;5048508;28;20025;-38
2022/02/17 05:36:52;;;;;;;47.15;24.45;;;;;;;-1.58;82.12;93041.38;5048428;28;20043;-40
2022/02/17 05:39:17;;;;;;;57.35;27.13;;;;;;;-1.66;82.47;93041.06;5048487;28;20444;-40
2022/02/17 05:41:43;;;;;;;54.58;29.02;;;;;;;-1.37;82.65;93033.91;5048431;28;20527;-37
2022/02/17 05:44:09;;;;;;;62.45;29.13;;;;;;;-1.56;82.54;93026.13;5048097;28;20013;-39
2022/02/17 05:46:35;;;;;;;65.18;30.00;;;;;;;-1.42;82.72;93029.19;5047997;28;20028;-39
2022/02/17 05:49:02;;;;;;;147.60;52.53;;;;;;;-1.25;81.76;93025.38;5048308;28;20025;-40
2022/02/17 05:51:28;;;;;;;102.85;43.70;;;;;;;-1.14;81.21;93024.69;5048029;28;20134;-41
2022/02/17 05:53:53;;;;;;;79.63;38.15;;;;;;;-1.03;81.02;93020.09;5047558;28;20021;-40
2022/02/17 05:56:19;;;;;;;94.82;45.83;;;;;;;-0.92;80.76;93022.84;5047853;28;20040;-41
2022/02/17 05:58:44;;;;;;;66.53;31.63;;;;;;;-0.97;80.79;93023.56;5048147;28;20021;-38
2022/02/17 06:01:09;;;;;;;111.70;29.10;;;;;;;-0.77;80.18;93019.97;5047918;28;20017;-37
2022/02/17 06:03:35;;;;;;;58.38;31.38;;;;;;;-0.55;78.96;93033.59;5047885;28;20029;-37
2022/02/17 06:06:00;;;;;;;39.47;23.52;;;;;;;-0.39;76.86;93027.47;5047965;28;20126;-37
2022/02/17 06:08:26;;;;;;;72.72;38.65;;;;;;;-0.29;76.48;93026.06;5048049;28;20029;-39
2022/02/17 06:10:52;;;;;;;63.28;36.63;;;;;;;-0.11;75.40;93036.44;5047667;28;20059;-39
2022/02/17 06:13:17;;;;;;;39.65;21.58;;;;;;;0.03;76.52;93034.00;5047636;28;20017;-39
2022/02/17 06:15:43;;;;;;;39.35;24.17;;;;;;;0.06;77.22;93031.06;5047131;28;20017;-40
2022/02/17 06:18:08;;;;;;;61.78;31.50;;;;;;;0.08;76.67;93038.69;5047546;28;20017;-40
2022/02/17 06:20:34;;;;;;;58.08;32.13;;;;;;;0.26;76.61;93038.25;5047568;28;20025;-40
2022/02/17 06:22:59;;;;;;;59.55;32.65;;;;;;;0.53;76.03;93032.06;5047816;28;20025;-39
2022/02/17 06:25:25;;;;;;;69.90;37.47;;;;;;;0.48;75.74;93041.69;5047691;28;20524;-34
2022/02/17 06:27:51;;;;;;;75.90;38.20;;;;;;;0.64;75.44;93042.94;5047508;28;20059;-37
2022/02/17 06:30:19;;;;;;;60.28;32.60;;;;;;;0.64;75.23;93048.38;5047412;28;20029;-37
2022/02/17 06:32:49;;;;;;;88.88;44.03;;;;;;;0.95;74.76;93053.53;5047499;28;20104;-35
2022/02/17 06:35:22;;;;;;;85.07;42.35;;;;;;;1.09;73.70;93055.22;5047642;28;20036;-37
2022/02/17 06:37:50;;;;;;;70.07;35.53;;;;;;;1.41;73.40;93052.91;5047433;28;20513;-37
2022/02/17 06:40:15;;;;;;;57.80;27.80;;;;;;;1.27;73.36;93049.28;5047609;28;20025;-40
2022/02/17 06:42:41;;;;;;;54.10;29.65;;;;;;;1.64;74.22;93048.16;5047287;28;20047;-40
2022/02/17 06:45:06;;;;;;;37.75;23.27;;;;;;;1.97;73.25;93045.28;5046352;28;20077;-40
2022/02/17 06:47:32;;;;;;;76.57;36.92;;;;;;;2.03;72.32;93049.47;5046993;28;20025;-40
2022/02/17 06:49:57;;;;;;;78.97;38.22;;;;;;;1.97;72.12;93046.00;5047480;28;20032;-41
2022/02/17 06:52:23;;;;;;;58.13;22.83;;;;;;;1.42;74.41;93054.41;5047150;28;20418;-40
2022/02/17 06:54:48;;;;;;;242.68;82.88;;;;;;;0.95;76.04;93036.47;5046897;28;20049;-40
2022/02/17 06:57:21;;;;;;;62.45;29.02;;;;;;;1.06;77.31;93045.34;5047200;28;20460;-41
2022/02/17 06:59:51;;;;;;;74.22;33.40;;;;;;;1.17;77.43;93039.16;5047083;28;20033;-41
2022/02/17 07:02:23;;;;;;;56.00;31.05;;;;;;;1.72;77.46;93044.41;5046939;28;20029;-40
2022/02/17 07:04:48;;;;;;;60.75;33.63;;;;;;;2.15;75.83;93044.69;5047220;28;20108;-41
2022/02/17 07:07:14;;;;;;;38.15;23.67;;;;;;;2.49;74.84;93048.66;5046879;28;20052;-40
2022/02/17 07:09:39;;;;;;;37.00;21.67;;;;;;;2.68;73.40;93046.06;5047230;28;20024;-40
2022/02/17 07:12:05;;;;;;;33.97;20.63;;;;;;;2.90;71.32;93037.69;5047167;28;20081;-40
2022/02/17 07:14:30;;;;;;;41.72;24.02;;;;;;;2.94;71.35;93038.91;5047214;28;20029;-40
2022/02/17 07:16:59;;;;;;;46.40;26.27;;;;;;;3.12;71.10;93048.38;5047096;28;20021;-41
2022/02/17 07:19:25;;;;;;;56.35;31.80;;;;;;;3.24;70.84;93054.47;5046728;28;20024;-41
2022/02/17 07:21:50;;;;;;;63.33;34.63;;;;;;;3.63;69.81;93039.19;5046850;28;20024;-41
2022/02/17 07:24:20;;;;;;;59.08;33.10;;;;;;;4.00;68.44;93029.56;5047007;28;20025;-42
2022/02/17 07:26:46;;;;;;;60.65;34.63;;;;;;;4.83;67.88;93042.75;5046570;28;20104;-41
2022/02/17 07:29:12;;;;;;;57.60;35.55;;;;;;;5.97;64.82;93039.75;5048762;28;20113;-41
2022/02/17 07:31:37;;;;;;;75.05;43.20;;;;;;;5.91;60.38;93025.44;5050454;28;20111;-41
2022/02/17 07:34:03;;;;;;;54.50;34.22;;;;;;;6.28;61.61;93025.13;5050442;28;20060;-41
2022/02/17 07:36:29;;;;;;;40.97;24.70;;;;;;;7.16;59.11;93022.34;5050133;28;20494;-41
2022/02/17 07:38:55;;;;;;;33.08;20.80;;;;;;;8.24;56.23;93012.94;5050031;28;20073;-40
2022/02/17 07:41:20;;;;;;;39.60;22.05;;;;;;;8.54;55.59;93009.56;5047143;28;20018;-39
2022/02/17 07:43:46;;;;;;;42.25;25.67;;;;;;;9.24;52.27;93009.13;5027715;28;20090;-41
2022/02/17 07:46:12;;;;;;;47.78;31.52;;;;;;;9.66;52.20;93002.66;5028089;28;20022;-40
2022/02/17 07:48:38;;;;;;;46.45;29.75;;;;;;;9.76;51.16;93005.59;5028084;28;20030;-41
2022/02/17 07:51:04;;;;;;;36.25;22.73;;;;;;;9.35;51.83;93006.75;5028197;28;20120;-41
2022/02/17 07:53:31;;;;;;;36.90;24.30;;;;;;;8.70;53.71;92999.34;5031663;27;20108;-41
2022/02/17 07:55:57;;;;;;;50.08;31.25;;;;;;;7.06;58.22;93001.41;5047522;28;20467;-41
2022/02/17 07:58:22;;;;;;;52.08;29.45;;;;;;;7.16;59.46;92996.91;5047900;28;20122;-40
2022/02/17 08:00:47;;;;;;;45.90;28.95;;;;;;;7.97;58.08;92986.94;5047592;28;20032;-40
2022/02/17 08:03:13;;;;;;;41.13;27.50;;;;;;;8.40;55.71;92986.25;5047727;28;20041;-40
2022/02/17 08:05:39;;;;;;;39.53;27.13;;;;;;;9.04;55.05;92986.72;5047237;28;20037;-40
2022/02/17 08:08:09;;;;;;;37.65;26.10;;;;;;;10.32;51.64;92972.00;5046713;28;20021;-40
2022/02/17 08:10:35;;;;;;;38.92;26.48;;;;;;;11.47;49.18;92970.69;5047342;28;20025;-40
2022/02/17 08:13:01;;;;;;;35.95;23.13;;;;;;;12.75;46.70;92972.06;5047746;28;20021;-40
2022/02/17 08:15:27;;;;;;;29.25;19.90;;;;;;;13.40;43.85;92965.97;5047161;28;20025;-40
2022/02/17 08:17:52;;;;;;;29.10;19.33;;;;;;;14.58;41.48;92976.06;5039959;28;20403;-40
2022/02/17 08:20:17;;;;;;;15.20;11.75;;;;;;;13.06;43.29;92955.75;5036641;28;20041;-40
2022/02/17 08:22:54;;;;;;;16.92;12.52;;;;;;;14.01;42.52;92960.84;5027192;28;20017;-40
2022/02/17 08:25:20;;;;;;;78.28;44.03;;;;;;;13.53;42.39;92958.00;5036287;28;20021;-40
2022/02/17 08:27:50;;;;;;;51.92;28.30;;;;;;;14.88;41.57;92953.19;5039658;28;20033;-40
2022/02/17 08:30:16;;;;;;;21.25;13.75;;;;;;;15.90;40.07;92954.69;5032364;28;20087;-40
2022/02/17 08:32:42;;;;;;;19.13;13.40;;;;;;;16.53;38.22;92947.66;5027113;28;20040;-40
2022/02/17 08:35:10;;;;;;;25.60;14.88;;;;;;;17.33;36.90;92944.34;5038528;28;20017;-40
2022/02/17 08:37:36;;;;;;;22.92;13.57;;;;;;;18.33;34.33;92934.91;5028882;28;20037;-40
2022/02/17 08:40:03;;;;;;;25.42;18.45;;;;;;;18.96;33.85;92933.56;5028925;28;20531;-40
2022/02/17 08:42:28;;;;;;;26.88;14.93;;;;;;;19.73;32.39;92935.63;5029204;28;20021;-40
2022/02/17 08:44:53;;;;;;;21.45;14.13;;;;;;;20.15;31.50;92923.06;5029443;28;20018;-40
2022/02/17 08:47:19;;;;;;;22.60;16.45;;;;;;;20.31;31.48;92918.31;5029184;28;20029;-40
2022/02/17 08:49:45;;;;;;;19.85;14.45;;;;;;;20.98;31.33;92925.78;5032991;28;20032;-40
2022/02/17 08:52:11;;;;;;;31.23;20.30;;;;;;;21.02;29.93;92925.25;5049256;28;20024;-40
2022/02/17 08:54:37;;;;;;;36.60;22.20;;;;;;;21.32;30.35;92923.16;5048353;28;20486;-40
2022/02/17 08:57:03;;;;;;;29.02;21.42;;;;;;;21.75;28.20;92923.69;5049229;28;20021;-40
2022/02/17 08:59:28;;;;;;;25.80;19.75;;;;;;;22.11;27.82;92924.59;5048860;28;20560;-40
2022/02/17 09:01:54;;;;;;;22.15;16.70;;;;;;;22.32;28.22;92922.03;5049056;28;20071;-40
2022/02/17 09:04:20;;;;;;;24.70;17.27;;;;;;;22.88;27.81;92920.09;5049095;28;20032;-40
2022/02/17 09:06:48;;;;;;;23.00;12.60;;;;;;;23.10;27.02;92907.63;5048630;28;20057;-40
2022/02/17 09:09:14;;;;;;;25.27;17.23;;;;;;;23.61;27.06;92909.56;5048735;28;20032;-40
2022/02/17 09:11:39;;;;;;;19.80;13.35;;;;;;;22.52;27.07;92896.81;5048681;28;20032;-40
2022/02/17 09:14:04;;;;;;;15.63;10.30;;;;;;;22.65;27.10;92895.25;5048845;28;20069;-40
2022/02/17 09:16:30;;;;;;;18.42;10.52;;;;;;;21.67;29.09;92895.97;5048944;28;20401;-40
2022/02/17 09:18:55;;;;;;;16.50;11.32;;;;;;;22.64;27.54;92874.81;5048806;28;20413;-40
2022/02/17 09:21:21;;;;;;;11.45;7.10;;;;;;;23.50;25.85;92885.94;5048529;28;20052;-40
2022/02/17 09:23:46;;;;;;;14.35;7.32;;;;;;;23.91;25.83;92874.75;5048437;28;20116;-40
2022/02/17 09:26:12;;;;;;;12.45;6.97;;;;;;;22.63;26.68;92875.47;5048655;28;20044;-40
2022/02/17 09:28:38;;;;;;;11.07;5.45;;;;;;;22.47;26.68;92870.59;5048750;28;20498;-40
2022/02/17 09:31:04;;;;;;;8.65;5.80;;;;;;;23.42;25.70;92876.47;5048594;28;20061;-40
2022/02/17 09:33:30;;;;;;;8.43;5.20;;;;;;;23.25;26.59;92863.84;5048357;28;20079;-40
2022/02/17 09:35:55;;;;;;;10.75;6.50;;;;;;;24.05;26.05;92868.94;5048167;28;20020;-40
2022/02/17 09:38:21;;;;;;;8.65;5.68;;;;;;;24.05;25.47;92877.38;5048568;28;20037;-40
2022/02/17 09:40:47;;;;;;;10.95;6.10;;;;;;;24.00;25.72;92879.31;5048182;28;20025;-40
2022/02/17 09:43:13;;;;;;;9.75;6.68;;;;;;;25.08;24.41;92870.25;5048121;28;20040;-41
2022/02/17 09:45:47;;;;;;;10.50;5.55;;;;;;;25.49;23.92;92870.13;5046937;28;20033;-41
2022/02/17 09:48:13;;;;;;;8.07;4.68;;;;;;;25.02;23.66;92858.78;5048090;28;20052;-40
2022/02/17 09:50:39;;;;;;;5.55;4.25;;;;;;;25.37;23.00;92872.56;5047059;28;20041;-40
2022/02/17 09:53:05;;;;;;;8.95;5.32;;;;;;;25.43;23.12;92875.59;5047917;27;20040;-41
2022/02/17 09:55:33;;;;;;;10.85;5.40;;;;;;;25.52;23.06;92870.91;5047856;28;20049;-41
2022/02/17 09:57:59;;;;;;;12.48;6.07;;;;;;;25.79;22.62;92867.47;5047919;28;20081;-41
2022/02/17 10:00:25;;;;;;;14.20;5.35;;;;;;;25.99;23.09;92858.84;5047848;28;20109;-40
2022/02/17 10:02:52;;;;;;;4.75;4.20;;;;;;;25.95;22.64;92862.25;5047787;28;20021;-40
2022/02/17 10:05:19;;;;;;;9.23;4.28;;;;;;;26.00;22.52;92857.44;5046417;28;20036;-40
2022/02/17 10:07:45;;;;;;;10.20;5.05;;;;;;;25.82;23.96;92854.09;5047723;28;20037;-40
2022/02/17 10:10:14;;;;;;;10.52;5.88;;;;;;;26.09;22.66;92850.63;5048870;28;20041;-41
2022/02/17 10:12:49;;;;;;;;;;;;;;;26.41;22.28;92837.34;5048614;28;20433;-40
2022/02/17 10:15:25;;;;;;;10.23;6.78;;;;;;;26.38;22.05;92843.63;5047880;28;20439;-41
2022/02/17 10:18:13;;;;;;;14.95;11.02;;;;;;;26.67;21.69;92832.34;5047717;28;20028;-41
2022/02/17 10:20:58;;;;;;;18.67;11.43;;;;;;;27.11;21.12;92834.81;5048009;28;20056;-41
2022/02/17 10:23:30;;;;;;;10.35;6.35;;;;;;;25.57;23.44;92830.06;5047853;28;20032;-40
2022/02/17 10:26:06;;;;;;;12.25;6.10;;;;;;;26.38;21.82;92824.50;5047419;28;20501;-41
2022/02/17 10:28:37;;;;;;;8.57;4.82;;;;;;;26.63;22.06;92820.19;5047615;28;20506;-40
2022/02/17 10:31:04;;;;;;;7.32;5.05;;;;;;;26.47;22.11;92833.94;5047509;27;20502;-41
2022/02/17 10:33:36;;;;;;;7.78;5.40;;;;;;;26.81;21.76;92810.03;5047743;28;20049;-41
2022/02/17 10:36:02;;;;;;;9.32;5.18;;;;;;;25.91;22.93;92814.06;5047646;28;20100;-41
2022/02/17 10:38:27;;;;;;;8.63;5.68;;;;;;;26.35;22.06;92813.81;5047300;28;20487;-41
2022/02/17 10:40:54;;;;;;;5.43;4.70;;;;;;;26.35;22.28;92811.72;5047335;28;20032;-40
2022/02/17 10:43:21;;;;;;;8.68;5.93;;;;;;;26.57;22.12;92794.56;5047252;28;20036;-41
2022/02/17 10:45:49;;;;;;;14.63;5.90;;;;;;;26.22;22.65;92793.72;5047189;28;20021;-41
2022/02/17 10:48:16;;;;;;;9.45;4.95;;;;;;;26.26;22.20;92799.47;5047120;28;20570;-41
2022/02/17 10:50:43;;;;;;;9.02;5.28;;;;;;;26.00;22.71;92790.28;5047410;28;20445;-41
2022/02/17 10:53:25;;;;;;;6.53;5.15;;;;;;;25.83;22.68;92782.00;5038322;28;20143;-40
2022/02/17 10:55:59;;;;;;;18.65;5.85;;;;;;;26.36;22.86;92767.16;5024251;28;20116;-41
2022/02/17 10:58:29;;;;;;;12.43;6.63;;;;;;;26.36;21.89;92761.50;5037548;28;20036;-41
2022/02/17 11:00:59;;;;;;;8.07;4.70;;;;;;;26.13;22.50;92760.94;5026479;28;20038;-40
2022/02/17 11:03:26;;;;;;;13.80;6.13;;;;;;;25.60;22.82;92757.34;5039040;28;20033;-40
2022/02/17 11:05:52;;;;;;;8.77;5.20;;;;;;;25.07;22.88;92755.09;5042877;28;20021;-40
2022/02/17 11:08:17;;;;;;;7.68;5.40;;;;;;;24.88;24.49;92759.50;5030307;28;20037;-40
2022/02/17 11:10:43;;;;;;;7.82;5.10;;;;;;;24.25;23.91;92747.59;5028081;28;20101;-40
2022/02/17 11:13:12;;;;;;;9.88;5.97;;;;;;;24.29;24.98;92753.38;5028298;28;20491;-40
2022/02/17 11:15:40;;;;;;;7.78;5.03;;;;;;;23.71;26.03;92754.94;5027870;28;20034;-41
2022/02/17 11:18:07;;;;;;;8.82;4.32;;;;;;;23.36;26.36;92753.00;5027959;28;20459;-40
2022/02/17 11:20:37;;;;;;;7.68;4.72;;;;;;;23.55;24.93;92735.38;5026565;28;20037;-40